sensor_id;sensor_type;location;lat;lon;timestamp;temperature;humidity
13186;DHT22;6658;53.080;7.428;2024-02-28T00:00:01;0.50;99.90
13186;DHT22;6658;53.080;7.428;2024-02-28T00:02:27;0.60;99.90
13186;DHT22;6658;53.080;7.428;2024-02-28T00:04:59;0.80;99.90
13186;DHT22;6658;53.080;7.428;2024-02-28T00:07:25;1.00;99.90
13186;DHT22;6658;53.080;7.428;2024-02-28T00:09:51;1.10;99.90
13186;DHT22;6658;53.080;7.428;2024-02-28T00:12:17;1.20;99.90
13186;DHT22;6658;53.080;7.428;2024-02-28T00:14:43;1.40;99.90
13186;DHT22;6658;53.080;7.428;2024-02-28T00:17:08;1.40;99.90
13186;DHT22;6658;53.080;7.428;2024-02-28T00:19:34;1.50;99.90
13186;DHT22;6658;53.080;7.428;2024-02-28T00:22:00;1.50;99.90
13186;DHT22;6658;53.080;7.428;2024-02-28T00:24:26;1.50;99.90
13186;DHT22;6658;53.080;7.428;2024-02-28T00:26:52;1.60;99.90
13186;DHT22;6658;53.080;7.428;2024-02-28T00:29:18;1.60;99.90
13186;DHT22;6658;53.080;7.428;2024-02-28T00:31:46;1.60;99.90
13186;DHT22;6658;53.080;7.428;2024-02-28T00:34:12;1.60;99.90
13186;DHT22;6658;53.080;7.428;2024-02-28T00:36:38;1.60;99.90
13186;DHT22;6658;53.080;7.428;2024-02-28T00:39:04;1.60;99.90
13186;DHT22;6658;53.080;7.428;2024-02-28T00:41:29;1.70;99.90
13186;DHT22;6658;53.080;7.428;2024-02-28T00:43:58;1.60;99.90
13186;DHT22;6658;53.080;7.428;2024-02-28T00:46:24;1.60;99.90
13186;DHT22;6658;53.080;7.428;2024-02-28T00:48:49;1.60;99.90
13186;DHT22;6658;53.080;7.428;2024-02-28T00:51:37;1.60;99.90
13186;DHT22;6658;53.080;7.428;2024-02-28T00:54:03;1.60;99.90
13186;DHT22;6658;53.080;7.428;2024-02-28T00:56:28;1.60;99.90
13186;DHT22;6658;53.080;7.428;2024-02-28T00:58:54;1.60;99.90
13186;DHT22;6658;53.080;7.428;2024-02-28T01:01:20;1.60;99.90
13186;DHT22;6658;53.080;7.428;2024-02-28T01:03:45;1.60;99.90
13186;DHT22;6658;53.080;7.428;2024-02-28T01:06:19;1.60;99.90
13186;DHT22;6658;53.080;7.428;2024-02-28T01:08:54;1.60;99.90
13186;DHT22;6658;53.080;7.428;2024-02-28T01:11:20;1.60;99.90
13186;DHT22;6658;53.080;7.428;2024-02-28T01:13:46;1.60;99.90
13186;DHT22;6658;53.080;7.428;2024-02-28T01:16:11;1.60;99.90
13186;DHT22;6658;53.080;7.428;2024-02-28T01:18:37;1.60;99.90
13186;DHT22;6658;53.080;7.428;2024-02-28T01:21:03;1.70;99.90
13186;DHT22;6658;53.080;7.428;2024-02-28T01:23:29;1.70;99.90
13186;DHT22;6658;53.080;7.428;2024-02-28T01:25:54;1.70;99.90
13186;DHT22;6658;53.080;7.428;2024-02-28T01:28:23;1.80;99.90
13186;DHT22;6658;53.080;7.428;2024-02-28T01:30:49;1.80;99.90
13186;DHT22;6658;53.080;7.428;2024-02-28T01:33:14;1.80;99.90
13186;DHT22;6658;53.080;7.428;2024-02-28T01:35:40;1.80;99.90
13186;DHT22;6658;53.080;7.428;2024-02-28T01:38:06;1.80;99.90
13186;DHT22;6658;53.080;7.428;2024-02-28T01:40:35;1.70;99.90
13186;DHT22;6658;53.080;7.428;2024-02-28T01:43:11;1.80;99.90
13186;DHT22;6658;53.080;7.428;2024-02-28T01:45:37;1.80;99.90
13186;DHT22;6658;53.080;7.428;2024-02-28T01:48:03;1.80;99.90
13186;DHT22;6658;53.080;7.428;2024-02-28T01:50:31;1.80;99.90
13186;DHT22;6658;53.080;7.428;2024-02-28T01:52:58;1.80;99.90
13186;DHT22;6658;53.080;7.428;2024-02-28T01:55:25;1.80;99.90
13186;DHT22;6658;53.080;7.428;2024-02-28T01:57:52;1.80;99.90
13186;DHT22;6658;53.080;7.428;2024-02-28T02:00:18;1.80;99.90
13186;DHT22;6658;53.080;7.428;2024-02-28T02:02:44;1.80;99.90
13186;DHT22;6658;53.080;7.428;2024-02-28T02:05:10;1.80;99.90
13186;DHT22;6658;53.080;7.428;2024-02-28T02:07:36;1.80;99.90
13186;DHT22;6658;53.080;7.428;2024-02-28T02:10:04;1.80;99.90
13186;DHT22;6658;53.080;7.428;2024-02-28T02:12:36;1.80;99.90
13186;DHT22;6658;53.080;7.428;2024-02-28T02:15:02;1.90;99.90
13186;DHT22;6658;53.080;7.428;2024-02-28T02:17:28;1.90;99.90
13186;DHT22;6658;53.080;7.428;2024-02-28T02:19:54;1.90;99.90
13186;DHT22;6658;53.080;7.428;2024-02-28T02:22:37;1.90;99.90
13186;DHT22;6658;53.080;7.428;2024-02-28T02:25:06;1.90;99.90
13186;DHT22;6658;53.080;7.428;2024-02-28T02:27:32;1.90;99.90
13186;DHT22;6658;53.080;7.428;2024-02-28T02:29:57;1.90;99.90
13186;DHT22;6658;53.080;7.428;2024-02-28T02:32:24;1.90;99.90
13186;DHT22;6658;53.080;7.428;2024-02-28T02:34:49;1.90;99.90
13186;DHT22;6658;53.080;7.428;2024-02-28T02:37:15;2.00;99.90
13186;DHT22;6658;53.080;7.428;2024-02-28T02:39:41;2.00;99.90
13186;DHT22;6658;53.080;7.428;2024-02-28T02:42:07;2.00;99.90
13186;DHT22;6658;53.080;7.428;2024-02-28T02:44:34;2.00;99.90
13186;DHT22;6658;53.080;7.428;2024-02-28T02:46:59;2.00;99.90
13186;DHT22;6658;53.080;7.428;2024-02-28T02:49:25;2.10;99.90
13186;DHT22;6658;53.080;7.428;2024-02-28T02:51:51;2.00;99.90
13186;DHT22;6658;53.080;7.428;2024-02-28T02:54:16;2.10;99.90
13186;DHT22;6658;53.080;7.428;2024-02-28T02:56:42;2.10;99.90
13186;DHT22;6658;53.080;7.428;2024-02-28T02:59:12;2.10;99.90
13186;DHT22;6658;53.080;7.428;2024-02-28T03:01:37;2.10;99.90
13186;DHT22;6658;53.080;7.428;2024-02-28T03:04:04;2.20;99.90
13186;DHT22;6658;53.080;7.428;2024-02-28T03:06:29;2.20;99.90
13186;DHT22;6658;53.080;7.428;2024-02-28T03:08:55;2.20;99.90
13186;DHT22;6658;53.080;7.428;2024-02-28T03:11:21;2.30;99.90
13186;DHT22;6658;53.080;7.428;2024-02-28T03:13:46;2.30;99.90
13186;DHT22;6658;53.080;7.428;2024-02-28T03:16:12;2.30;99.90
13186;DHT22;6658;53.080;7.428;2024-02-28T03:18:38;2.30;99.90
13186;DHT22;6658;53.080;7.428;2024-02-28T03:21:03;2.40;99.90
13186;DHT22;6658;53.080;7.428;2024-02-28T03:23:29;2.40;99.90
13186;DHT22;6658;53.080;7.428;2024-02-28T03:25:55;2.40;99.90
13186;DHT22;6658;53.080;7.428;2024-02-28T03:28:21;2.40;99.90
13186;DHT22;6658;53.080;7.428;2024-02-28T03:30:46;2.40;99.90
13186;DHT22;6658;53.080;7.428;2024-02-28T03:33:12;2.40;99.90
13186;DHT22;6658;53.080;7.428;2024-02-28T03:35:38;2.50;99.90
13186;DHT22;6658;53.080;7.428;2024-02-28T03:38:03;2.50;99.90
13186;DHT22;6658;53.080;7.428;2024-02-28T03:40:29;2.50;99.90
13186;DHT22;6658;53.080;7.428;2024-02-28T03:42:55;2.50;99.90
13186;DHT22;6658;53.080;7.428;2024-02-28T03:45:20;2.50;99.90
13186;DHT22;6658;53.080;7.428;2024-02-28T03:47:46;2.50;99.90
13186;DHT22;6658;53.080;7.428;2024-02-28T03:50:12;2.50;99.90
13186;DHT22;6658;53.080;7.428;2024-02-28T03:52:38;2.50;99.90
13186;DHT22;6658;53.080;7.428;2024-02-28T03:55:04;2.50;99.90
13186;DHT22;6658;53.080;7.428;2024-02-28T03:57:30;2.50;99.90
13186;DHT22;6658;53.080;7.428;2024-02-28T03:59:55;2.50;99.90
13186;DHT22;6658;53.080;7.428;2024-02-28T04:02:21;2.50;99.90
13186;DHT22;6658;53.080;7.428;2024-02-28T04:04:46;2.50;99.90
13186;DHT22;6658;53.080;7.428;2024-02-28T04:07:12;2.50;99.90
13186;DHT22;6658;53.080;7.428;2024-02-28T04:09:38;2.50;99.90
13186;DHT22;6658;53.080;7.428;2024-02-28T04:12:04;2.50;99.90
13186;DHT22;6658;53.080;7.428;2024-02-28T04:14:29;2.60;99.90
13186;DHT22;6658;53.080;7.428;2024-02-28T04:16:55;2.60;99.90
13186;DHT22;6658;53.080;7.428;2024-02-28T04:19:20;2.60;99.90
13186;DHT22;6658;53.080;7.428;2024-02-28T04:21:46;2.60;99.90
13186;DHT22;6658;53.080;7.428;2024-02-28T04:24:12;2.60;99.90
13186;DHT22;6658;53.080;7.428;2024-02-28T04:26:38;2.60;99.90
13186;DHT22;6658;53.080;7.428;2024-02-28T04:29:03;2.60;99.90
13186;DHT22;6658;53.080;7.428;2024-02-28T04:31:31;2.60;99.90
13186;DHT22;6658;53.080;7.428;2024-02-28T04:33:57;2.60;99.90
13186;DHT22;6658;53.080;7.428;2024-02-28T04:36:23;2.70;99.90
13186;DHT22;6658;53.080;7.428;2024-02-28T04:38:48;2.70;99.90
13186;DHT22;6658;53.080;7.428;2024-02-28T04:41:14;2.70;99.90
13186;DHT22;6658;53.080;7.428;2024-02-28T04:43:40;2.70;99.90
13186;DHT22;6658;53.080;7.428;2024-02-28T04:46:06;2.70;99.90
13186;DHT22;6658;53.080;7.428;2024-02-28T04:48:31;2.70;99.90
13186;DHT22;6658;53.080;7.428;2024-02-28T04:50:57;2.70;99.90
13186;DHT22;6658;53.080;7.428;2024-02-28T04:53:23;2.70;99.90
13186;DHT22;6658;53.080;7.428;2024-02-28T04:55:48;2.80;99.90
13186;DHT22;6658;53.080;7.428;2024-02-28T04:58:14;2.80;99.90
13186;DHT22;6658;53.080;7.428;2024-02-28T05:00:40;2.80;99.90
13186;DHT22;6658;53.080;7.428;2024-02-28T05:03:05;2.80;99.90
13186;DHT22;6658;53.080;7.428;2024-02-28T05:05:31;2.80;99.90
13186;DHT22;6658;53.080;7.428;2024-02-28T05:07:57;2.80;99.90
13186;DHT22;6658;53.080;7.428;2024-02-28T05:10:22;2.80;99.90
13186;DHT22;6658;53.080;7.428;2024-02-28T05:12:48;2.80;99.90
13186;DHT22;6658;53.080;7.428;2024-02-28T05:15:14;2.90;99.90
13186;DHT22;6658;53.080;7.428;2024-02-28T05:17:39;2.90;99.90
13186;DHT22;6658;53.080;7.428;2024-02-28T05:20:08;2.90;99.90
13186;DHT22;6658;53.080;7.428;2024-02-28T05:22:37;2.90;99.90
13186;DHT22;6658;53.080;7.428;2024-02-28T05:25:03;2.90;99.90
13186;DHT22;6658;53.080;7.428;2024-02-28T05:27:29;2.90;99.90
13186;DHT22;6658;53.080;7.428;2024-02-28T05:29:54;2.90;99.90
13186;DHT22;6658;53.080;7.428;2024-02-28T05:32:20;2.90;99.90
13186;DHT22;6658;53.080;7.428;2024-02-28T05:34:48;3.00;99.90
13186;DHT22;6658;53.080;7.428;2024-02-28T05:37:16;3.00;99.90
13186;DHT22;6658;53.080;7.428;2024-02-28T05:39:42;3.00;99.90
13186;DHT22;6658;53.080;7.428;2024-02-28T05:42:08;3.00;99.90
13186;DHT22;6658;53.080;7.428;2024-02-28T05:44:34;3.00;99.90
13186;DHT22;6658;53.080;7.428;2024-02-28T05:47:00;3.00;99.90
13186;DHT22;6658;53.080;7.428;2024-02-28T05:49:26;3.00;99.90
13186;DHT22;6658;53.080;7.428;2024-02-28T05:51:51;3.00;99.90
13186;DHT22;6658;53.080;7.428;2024-02-28T05:54:19;3.00;99.90
13186;DHT22;6658;53.080;7.428;2024-02-28T05:56:45;3.00;99.90
13186;DHT22;6658;53.080;7.428;2024-02-28T05:59:10;3.00;99.90
13186;DHT22;6658;53.080;7.428;2024-02-28T06:01:36;3.00;99.90
13186;DHT22;6658;53.080;7.428;2024-02-28T06:04:03;3.10;99.90
13186;DHT22;6658;53.080;7.428;2024-02-28T06:06:28;3.10;99.90
13186;DHT22;6658;53.080;7.428;2024-02-28T06:08:54;3.10;99.90
13186;DHT22;6658;53.080;7.428;2024-02-28T06:11:21;3.10;99.90
13186;DHT22;6658;53.080;7.428;2024-02-28T06:13:47;3.10;99.90
13186;DHT22;6658;53.080;7.428;2024-02-28T06:16:15;3.10;99.90
13186;DHT22;6658;53.080;7.428;2024-02-28T06:18:41;3.20;99.90
13186;DHT22;6658;53.080;7.428;2024-02-28T06:21:07;3.20;99.90
13186;DHT22;6658;53.080;7.428;2024-02-28T06:23:33;3.20;99.90
13186;DHT22;6658;53.080;7.428;2024-02-28T06:25:58;3.20;99.90
13186;DHT22;6658;53.080;7.428;2024-02-28T06:28:24;3.20;99.90
13186;DHT22;6658;53.080;7.428;2024-02-28T06:30:50;3.20;99.90
13186;DHT22;6658;53.080;7.428;2024-02-28T06:33:16;3.30;99.90
13186;DHT22;6658;53.080;7.428;2024-02-28T06:35:41;3.30;99.90
13186;DHT22;6658;53.080;7.428;2024-02-28T06:38:07;3.30;99.90
13186;DHT22;6658;53.080;7.428;2024-02-28T06:40:33;3.30;99.90
13186;DHT22;6658;53.080;7.428;2024-02-28T06:42:59;3.30;99.90
13186;DHT22;6658;53.080;7.428;2024-02-28T06:45:25;3.30;99.90
13186;DHT22;6658;53.080;7.428;2024-02-28T06:47:51;3.30;99.90
13186;DHT22;6658;53.080;7.428;2024-02-28T06:50:17;3.40;99.90
13186;DHT22;6658;53.080;7.428;2024-02-28T06:52:43;3.40;99.90
13186;DHT22;6658;53.080;7.428;2024-02-28T06:55:09;3.40;99.90
13186;DHT22;6658;53.080;7.428;2024-02-28T06:57:41;3.40;99.90
13186;DHT22;6658;53.080;7.428;2024-02-28T07:00:09;3.50;99.90
13186;DHT22;6658;53.080;7.428;2024-02-28T07:02:38;3.50;99.90
13186;DHT22;6658;53.080;7.428;2024-02-28T07:05:04;3.50;99.90
13186;DHT22;6658;53.080;7.428;2024-02-28T07:07:30;3.50;99.90
13186;DHT22;6658;53.080;7.428;2024-02-28T07:09:57;3.60;99.90
13186;DHT22;6658;53.080;7.428;2024-02-28T07:12:23;3.60;99.90
13186;DHT22;6658;53.080;7.428;2024-02-28T07:14:48;3.60;99.90
13186;DHT22;6658;53.080;7.428;2024-02-28T07:17:14;3.70;99.90
13186;DHT22;6658;53.080;7.428;2024-02-28T07:19:39;3.70;99.90
13186;DHT22;6658;53.080;7.428;2024-02-28T07:22:05;3.70;99.90
13186;DHT22;6658;53.080;7.428;2024-02-28T07:24:31;3.80;99.90
13186;DHT22;6658;53.080;7.428;2024-02-28T07:26:57;3.80;99.90
13186;DHT22;6658;53.080;7.428;2024-02-28T07:29:23;3.80;99.90
13186;DHT22;6658;53.080;7.428;2024-02-28T07:31:50;3.90;99.90
13186;DHT22;6658;53.080;7.428;2024-02-28T07:34:15;3.90;99.90
13186;DHT22;6658;53.080;7.428;2024-02-28T07:36:41;3.90;99.90
13186;DHT22;6658;53.080;7.428;2024-02-28T07:39:10;4.00;99.90
13186;DHT22;6658;53.080;7.428;2024-02-28T07:41:41;4.00;99.90
13186;DHT22;6658;53.080;7.428;2024-02-28T07:44:07;4.00;99.90
13186;DHT22;6658;53.080;7.428;2024-02-28T07:46:34;4.10;99.90
13186;DHT22;6658;53.080;7.428;2024-02-28T07:49:00;4.20;99.90
13186;DHT22;6658;53.080;7.428;2024-02-28T07:51:27;4.20;99.90
13186;DHT22;6658;53.080;7.428;2024-02-28T07:53:53;4.30;99.90
13186;DHT22;6658;53.080;7.428;2024-02-28T07:56:20;4.40;99.90
13186;DHT22;6658;53.080;7.428;2024-02-28T07:58:46;4.40;99.90
13186;DHT22;6658;53.080;7.428;2024-02-28T08:01:12;4.40;99.90
13186;DHT22;6658;53.080;7.428;2024-02-28T08:03:38;4.40;99.90
13186;DHT22;6658;53.080;7.428;2024-02-28T08:06:04;4.50;99.90
13186;DHT22;6658;53.080;7.428;2024-02-28T08:08:30;4.50;99.90
13186;DHT22;6658;53.080;7.428;2024-02-28T08:10:55;4.50;99.90
13186;DHT22;6658;53.080;7.428;2024-02-28T08:13:30;4.60;99.90
13186;DHT22;6658;53.080;7.428;2024-02-28T08:15:58;4.60;99.90
13186;DHT22;6658;53.080;7.428;2024-02-28T08:18:24;4.70;99.90
13186;DHT22;6658;53.080;7.428;2024-02-28T08:20:50;4.70;99.90
13186;DHT22;6658;53.080;7.428;2024-02-28T08:23:23;4.80;99.90
13186;DHT22;6658;53.080;7.428;2024-02-28T08:25:54;4.80;99.90
13186;DHT22;6658;53.080;7.428;2024-02-28T08:28:20;4.90;99.90
13186;DHT22;6658;53.080;7.428;2024-02-28T08:30:46;4.90;99.90
13186;DHT22;6658;53.080;7.428;2024-02-28T08:33:14;5.00;99.90
13186;DHT22;6658;53.080;7.428;2024-02-28T08:35:41;5.10;99.90
13186;DHT22;6658;53.080;7.428;2024-02-28T08:38:08;5.10;99.90
13186;DHT22;6658;53.080;7.428;2024-02-28T08:40:34;5.10;99.90
13186;DHT22;6658;53.080;7.428;2024-02-28T08:43:00;5.10;99.90
13186;DHT22;6658;53.080;7.428;2024-02-28T08:45:25;5.20;99.90
13186;DHT22;6658;53.080;7.428;2024-02-28T08:47:51;5.30;99.90
13186;DHT22;6658;53.080;7.428;2024-02-28T08:50:18;5.40;99.90
13186;DHT22;6658;53.080;7.428;2024-02-28T08:52:50;5.50;99.90
13186;DHT22;6658;53.080;7.428;2024-02-28T08:55:16;5.70;99.90
13186;DHT22;6658;53.080;7.428;2024-02-28T08:57:47;5.70;99.90
13186;DHT22;6658;53.080;7.428;2024-02-28T09:00:22;5.80;99.90
13186;DHT22;6658;53.080;7.428;2024-02-28T09:02:50;5.90;99.90
13186;DHT22;6658;53.080;7.428;2024-02-28T09:05:19;5.90;99.90
13186;DHT22;6658;53.080;7.428;2024-02-28T09:07:44;6.00;99.90
13186;DHT22;6658;53.080;7.428;2024-02-28T09:10:14;6.00;99.90
13186;DHT22;6658;53.080;7.428;2024-02-28T09:12:41;6.10;99.90
13186;DHT22;6658;53.080;7.428;2024-02-28T09:15:09;6.30;99.90
13186;DHT22;6658;53.080;7.428;2024-02-28T09:17:35;6.40;99.90
13186;DHT22;6658;53.080;7.428;2024-02-28T09:20:01;6.50;99.90
13186;DHT22;6658;53.080;7.428;2024-02-28T09:22:34;6.80;99.90
13186;DHT22;6658;53.080;7.428;2024-02-28T09:25:00;6.80;99.90
13186;DHT22;6658;53.080;7.428;2024-02-28T09:30:17;7.00;99.90
13186;DHT22;6658;53.080;7.428;2024-02-28T09:32:44;6.70;99.90
13186;DHT22;6658;53.080;7.428;2024-02-28T09:35:12;6.60;99.90
13186;DHT22;6658;53.080;7.428;2024-02-28T09:37:38;6.50;99.90
13186;DHT22;6658;53.080;7.428;2024-02-28T09:40:04;6.40;99.90
13186;DHT22;6658;53.080;7.428;2024-02-28T09:42:31;6.30;99.90
13186;DHT22;6658;53.080;7.428;2024-02-28T09:45:00;6.40;99.90
13186;DHT22;6658;53.080;7.428;2024-02-28T09:47:27;6.50;99.90
13186;DHT22;6658;53.080;7.428;2024-02-28T09:49:53;6.60;99.90
13186;DHT22;6658;53.080;7.428;2024-02-28T09:52:21;6.70;99.90
13186;DHT22;6658;53.080;7.428;2024-02-28T09:54:47;6.80;99.90
13186;DHT22;6658;53.080;7.428;2024-02-28T09:57:13;6.90;99.90
13186;DHT22;6658;53.080;7.428;2024-02-28T09:59:42;6.90;99.90
13186;DHT22;6658;53.080;7.428;2024-02-28T10:02:12;6.90;99.90
13186;DHT22;6658;53.080;7.428;2024-02-28T10:04:42;7.00;99.90
13186;DHT22;6658;53.080;7.428;2024-02-28T10:07:14;7.20;99.90
13186;DHT22;6658;53.080;7.428;2024-02-28T10:09:41;7.30;99.90
13186;DHT22;6658;53.080;7.428;2024-02-28T10:12:10;7.50;99.90
13186;DHT22;6658;53.080;7.428;2024-02-28T10:14:54;7.60;99.90
13186;DHT22;6658;53.080;7.428;2024-02-28T10:17:23;7.60;99.90
13186;DHT22;6658;53.080;7.428;2024-02-28T10:19:52;7.60;99.90
13186;DHT22;6658;53.080;7.428;2024-02-28T10:22:18;7.70;99.90
13186;DHT22;6658;53.080;7.428;2024-02-28T10:25:10;7.80;99.90
13186;DHT22;6658;53.080;7.428;2024-02-28T10:27:41;7.90;99.90
13186;DHT22;6658;53.080;7.428;2024-02-28T10:30:10;8.00;99.90
13186;DHT22;6658;53.080;7.428;2024-02-28T10:33:03;8.00;99.90
13186;DHT22;6658;53.080;7.428;2024-02-28T10:35:35;8.10;99.90
13186;DHT22;6658;53.080;7.428;2024-02-28T10:38:13;8.20;99.90
13186;DHT22;6658;53.080;7.428;2024-02-28T10:40:42;8.10;99.90
13186;DHT22;6658;53.080;7.428;2024-02-28T10:43:10;8.20;99.90
13186;DHT22;6658;53.080;7.428;2024-02-28T10:45:37;8.20;99.90
13186;DHT22;6658;53.080;7.428;2024-02-28T10:48:07;8.20;99.90
13186;DHT22;6658;53.080;7.428;2024-02-28T10:50:33;8.20;99.90
13186;DHT22;6658;53.080;7.428;2024-02-28T10:53:04;8.10;99.90
13186;DHT22;6658;53.080;7.428;2024-02-28T10:55:47;8.10;99.90
13186;DHT22;6658;53.080;7.428;2024-02-28T10:58:14;8.10;99.90
13186;DHT22;6658;53.080;7.428;2024-02-28T11:03:19;8.00;99.90
13186;DHT22;6658;53.080;7.428;2024-02-28T11:09:25;8.10;99.90
13186;DHT22;6658;53.080;7.428;2024-02-28T11:11:57;8.40;99.90
13186;DHT22;6658;53.080;7.428;2024-02-28T11:14:28;8.50;99.90
13186;DHT22;6658;53.080;7.428;2024-02-28T11:17:05;8.60;99.90
13186;DHT22;6658;53.080;7.428;2024-02-28T11:19:32;8.70;99.90
13186;DHT22;6658;53.080;7.428;2024-02-28T11:22:01;8.60;99.90
13186;DHT22;6658;53.080;7.428;2024-02-28T11:24:35;8.60;99.90
13186;DHT22;6658;53.080;7.428;2024-02-28T11:27:21;8.60;99.90
13186;DHT22;6658;53.080;7.428;2024-02-28T11:30:17;8.60;99.90
13186;DHT22;6658;53.080;7.428;2024-02-28T11:33:04;8.70;99.90
13186;DHT22;6658;53.080;7.428;2024-02-28T11:35:32;9.00;99.90
13186;DHT22;6658;53.080;7.428;2024-02-28T11:37:58;9.10;99.90
13186;DHT22;6658;53.080;7.428;2024-02-28T11:40:53;9.30;99.90
13186;DHT22;6658;53.080;7.428;2024-02-28T11:43:42;9.20;99.90
13186;DHT22;6658;53.080;7.428;2024-02-28T11:46:12;9.30;99.90
13186;DHT22;6658;53.080;7.428;2024-02-28T11:48:42;9.40;99.90
13186;DHT22;6658;53.080;7.428;2024-02-28T11:54:11;9.30;99.90
13186;DHT22;6658;53.080;7.428;2024-02-28T11:56:40;9.20;99.90
13186;DHT22;6658;53.080;7.428;2024-02-28T11:59:06;9.30;99.90
13186;DHT22;6658;53.080;7.428;2024-02-28T12:01:48;9.20;99.90
13186;DHT22;6658;53.080;7.428;2024-02-28T12:04:16;9.20;99.90
13186;DHT22;6658;53.080;7.428;2024-02-28T12:06:41;9.30;99.90
13186;DHT22;6658;53.080;7.428;2024-02-28T12:09:37;9.40;99.90
13186;DHT22;6658;53.080;7.428;2024-02-28T12:12:17;9.50;99.90
13186;DHT22;6658;53.080;7.428;2024-02-28T12:15:10;9.50;99.90
13186;DHT22;6658;53.080;7.428;2024-02-28T12:17:42;9.50;99.90
13186;DHT22;6658;53.080;7.428;2024-02-28T12:20:31;9.50;99.90
13186;DHT22;6658;53.080;7.428;2024-02-28T12:29:15;9.80;99.90
13186;DHT22;6658;53.080;7.428;2024-02-28T12:31:41;9.70;99.90
13186;DHT22;6658;53.080;7.428;2024-02-28T12:34:15;9.80;99.90
13186;DHT22;6658;53.080;7.428;2024-02-28T12:39:30;9.90;99.90
13186;DHT22;6658;53.080;7.428;2024-02-28T12:41:59;10.00;99.90
13186;DHT22;6658;53.080;7.428;2024-02-28T12:44:25;10.00;99.90
13186;DHT22;6658;53.080;7.428;2024-02-28T12:46:51;10.10;99.90
13186;DHT22;6658;53.080;7.428;2024-02-28T12:49:26;10.00;99.90
13186;DHT22;6658;53.080;7.428;2024-02-28T12:51:59;10.00;99.90
13186;DHT22;6658;53.080;7.428;2024-02-28T12:54:27;10.10;99.90
13186;DHT22;6658;53.080;7.428;2024-02-28T12:57:03;10.20;99.90
13186;DHT22;6658;53.080;7.428;2024-02-28T12:59:31;10.20;99.90
13186;DHT22;6658;53.080;7.428;2024-02-28T13:01:58;10.40;99.90
13186;DHT22;6658;53.080;7.428;2024-02-28T13:04:30;10.40;99.90
13186;DHT22;6658;53.080;7.428;2024-02-28T13:06:56;10.40;99.90
13186;DHT22;6658;53.080;7.428;2024-02-28T13:09:30;10.40;99.90
13186;DHT22;6658;53.080;7.428;2024-02-28T13:11:57;10.30;99.90
13186;DHT22;6658;53.080;7.428;2024-02-28T13:17:26;10.30;99.90
13186;DHT22;6658;53.080;7.428;2024-02-28T13:20:02;10.20;99.90
13186;DHT22;6658;53.080;7.428;2024-02-28T13:22:30;10.20;99.90
13186;DHT22;6658;53.080;7.428;2024-02-28T13:24:56;10.20;99.90
13186;DHT22;6658;53.080;7.428;2024-02-28T13:27:22;10.10;99.90
13186;DHT22;6658;53.080;7.428;2024-02-28T13:29:58;10.10;99.90
13186;DHT22;6658;53.080;7.428;2024-02-28T13:32:29;10.00;99.90
13186;DHT22;6658;53.080;7.428;2024-02-28T13:35:03;10.00;99.90
13186;DHT22;6658;53.080;7.428;2024-02-28T13:37:29;9.90;99.90
13186;DHT22;6658;53.080;7.428;2024-02-28T13:40:01;9.90;99.90
13186;DHT22;6658;53.080;7.428;2024-02-28T13:42:26;9.90;99.90
13186;DHT22;6658;53.080;7.428;2024-02-28T13:45:04;9.90;99.90
13186;DHT22;6658;53.080;7.428;2024-02-28T13:47:35;9.80;99.90
13186;DHT22;6658;53.080;7.428;2024-02-28T13:50:02;9.70;99.90
13186;DHT22;6658;53.080;7.428;2024-02-28T13:52:33;9.70;99.90
13186;DHT22;6658;53.080;7.428;2024-02-28T13:55:02;9.70;99.90
13186;DHT22;6658;53.080;7.428;2024-02-28T13:57:28;9.70;99.90
13186;DHT22;6658;53.080;7.428;2024-02-28T13:59:57;9.70;99.90
13186;DHT22;6658;53.080;7.428;2024-02-28T14:02:40;9.70;99.90
13186;DHT22;6658;53.080;7.428;2024-02-28T14:05:19;9.60;99.90
13186;DHT22;6658;53.080;7.428;2024-02-28T14:07:54;9.60;99.90
13186;DHT22;6658;53.080;7.428;2024-02-28T14:10:23;9.60;99.90
13186;DHT22;6658;53.080;7.428;2024-02-28T14:12:51;9.50;99.90
13186;DHT22;6658;53.080;7.428;2024-02-28T14:18:14;9.40;99.90
13186;DHT22;6658;53.080;7.428;2024-02-28T14:20:46;9.40;99.90
13186;DHT22;6658;53.080;7.428;2024-02-28T14:23:22;9.40;99.90
13186;DHT22;6658;53.080;7.428;2024-02-28T14:25:48;9.40;99.90
13186;DHT22;6658;53.080;7.428;2024-02-28T14:28:14;9.40;99.90
13186;DHT22;6658;53.080;7.428;2024-02-28T14:30:39;9.40;99.90
13186;DHT22;6658;53.080;7.428;2024-02-28T14:33:08;9.40;99.90
13186;DHT22;6658;53.080;7.428;2024-02-28T14:35:49;9.40;99.90
13186;DHT22;6658;53.080;7.428;2024-02-28T14:38:18;9.40;99.90
13186;DHT22;6658;53.080;7.428;2024-02-28T14:40:45;9.30;99.90
13186;DHT22;6658;53.080;7.428;2024-02-28T14:43:10;9.30;99.90
13186;DHT22;6658;53.080;7.428;2024-02-28T14:45:51;9.30;99.90
13186;DHT22;6658;53.080;7.428;2024-02-28T14:48:17;9.20;99.90
13186;DHT22;6658;53.080;7.428;2024-02-28T14:50:48;9.20;99.90
13186;DHT22;6658;53.080;7.428;2024-02-28T14:53:15;9.20;99.90
13186;DHT22;6658;53.080;7.428;2024-02-28T14:55:55;9.10;99.90
13186;DHT22;6658;53.080;7.428;2024-02-28T14:58:21;9.10;99.90
13186;DHT22;6658;53.080;7.428;2024-02-28T15:01:03;9.20;99.90
13186;DHT22;6658;53.080;7.428;2024-02-28T15:03:30;9.20;99.90
13186;DHT22;6658;53.080;7.428;2024-02-28T15:05:56;9.10;99.90
13186;DHT22;6658;53.080;7.428;2024-02-28T15:08:21;9.10;99.90
13186;DHT22;6658;53.080;7.428;2024-02-28T15:10:55;9.10;99.90
13186;DHT22;6658;53.080;7.428;2024-02-28T15:13:20;9.20;99.90
13186;DHT22;6658;53.080;7.428;2024-02-28T15:15:49;9.20;99.90
13186;DHT22;6658;53.080;7.428;2024-02-28T15:18:17;9.20;99.90
13186;DHT22;6658;53.080;7.428;2024-02-28T15:20:45;9.10;99.90
13186;DHT22;6658;53.080;7.428;2024-02-28T15:23:22;9.10;99.90
13186;DHT22;6658;53.080;7.428;2024-02-28T15:25:48;9.10;99.90
13186;DHT22;6658;53.080;7.428;2024-02-28T15:28:27;9.10;99.90
13186;DHT22;6658;53.080;7.428;2024-02-28T15:30:53;9.10;99.90
13186;DHT22;6658;53.080;7.428;2024-02-28T15:33:29;9.10;99.90
13186;DHT22;6658;53.080;7.428;2024-02-28T15:35:58;9.10;99.90
13186;DHT22;6658;53.080;7.428;2024-02-28T15:38:26;9.10;99.90
13186;DHT22;6658;53.080;7.428;2024-02-28T15:41:03;9.10;99.90
13186;DHT22;6658;53.080;7.428;2024-02-28T15:46:23;9.20;99.90
13186;DHT22;6658;53.080;7.428;2024-02-28T15:49:09;9.10;99.90
13186;DHT22;6658;53.080;7.428;2024-02-28T15:51:35;9.10;99.90
13186;DHT22;6658;53.080;7.428;2024-02-28T15:54:04;9.10;99.90
13186;DHT22;6658;53.080;7.428;2024-02-28T15:56:30;9.00;99.90
13186;DHT22;6658;53.080;7.428;2024-02-28T15:59:03;9.00;99.90
13186;DHT22;6658;53.080;7.428;2024-02-28T16:01:30;9.00;99.90
13186;DHT22;6658;53.080;7.428;2024-02-28T16:04:02;8.90;99.90
13186;DHT22;6658;53.080;7.428;2024-02-28T16:06:28;8.90;99.90
13186;DHT22;6658;53.080;7.428;2024-02-28T16:08:54;8.90;99.90
13186;DHT22;6658;53.080;7.428;2024-02-28T16:11:36;8.80;99.90
13186;DHT22;6658;53.080;7.428;2024-02-28T16:14:02;8.80;99.90
13186;DHT22;6658;53.080;7.428;2024-02-28T16:16:31;8.80;99.90
13186;DHT22;6658;53.080;7.428;2024-02-28T16:19:20;8.80;99.90
13186;DHT22;6658;53.080;7.428;2024-02-28T16:21:48;8.70;99.90
13186;DHT22;6658;53.080;7.428;2024-02-28T16:24:15;8.60;99.90
13186;DHT22;6658;53.080;7.428;2024-02-28T16:26:58;8.60;99.90
13186;DHT22;6658;53.080;7.428;2024-02-28T16:29:24;8.60;99.90
13186;DHT22;6658;53.080;7.428;2024-02-28T16:32:13;8.60;99.90
13186;DHT22;6658;53.080;7.428;2024-02-28T16:34:59;8.60;99.90
13186;DHT22;6658;53.080;7.428;2024-02-28T16:37:28;8.50;99.90